createdAt,value
2018-01-19T00:00:21.045Z,90.36
2018-01-19T00:01:01.570Z,89.7
2018-01-19T00:01:42.098Z,89.98
2018-01-19T00:02:22.668Z,90.27
2018-01-19T00:03:03.173Z,90.27
2018-01-19T00:03:43.722Z,90.56
2018-01-19T00:04:24.254Z,90.17
2018-01-19T00:05:04.791Z,89.98
2018-01-19T00:05:45.379Z,89.89
2018-01-19T00:06:25.877Z,89.7
2018-01-19T00:07:06.432Z,89.98
2018-01-19T00:07:46.945Z,89.61
2018-01-19T00:08:27.475Z,90.46
2018-01-19T00:09:07.964Z,90.36
2018-01-19T00:09:48.501Z,89.7
2018-01-19T00:10:29.167Z,89.89
2018-01-19T00:11:09.698Z,89.89
2018-01-19T00:11:50.238Z,89.98
2018-01-19T00:12:30.804Z,89.7
2018-01-19T00:13:11.274Z,89.41
2018-01-19T00:13:51.875Z,89.41
2018-01-19T00:14:32.400Z,89.79
2018-01-19T00:15:12.973Z,89.61
2018-01-19T00:15:53.456Z,89.7
2018-01-19T00:16:34.031Z,89.61
2018-01-19T00:17:14.547Z,89.51
2018-01-19T00:17:55.124Z,88.84
2018-01-19T00:18:35.705Z,88.93
2018-01-19T00:19:16.272Z,89.13
2018-01-19T00:19:56.749Z,89.13
2018-01-19T00:20:37.323Z,88.37
2018-01-19T00:21:17.852Z,88.65
2018-01-19T00:21:58.420Z,88.46
2018-01-19T00:22:38.953Z,88.37
2018-01-19T00:23:19.443Z,88.65
2018-01-19T00:23:59.942Z,88.46
2018-01-19T00:24:40.473Z,88.46
2018-01-19T00:25:21.047Z,88.46
2018-01-19T00:26:01.561Z,88.7
2018-01-19T00:26:42.096Z,87.79
2018-01-19T00:27:22.656Z,87.89
2018-01-19T00:28:03.155Z,88.08
2018-01-19T00:28:43.646Z,87.89
2018-01-19T00:29:24.186Z,88.08
2018-01-19T00:30:04.762Z,88.65
2018-01-19T00:30:45.279Z,88.65
2018-01-19T00:31:25.863Z,88.51
2018-01-19T00:32:06.357Z,88.41
2018-01-19T00:32:46.909Z,88.46
2018-01-19T00:33:27.416Z,88.51
2018-01-19T00:34:07.980Z,89.03
2018-01-19T00:34:48.490Z,88.75
2018-01-19T00:35:28.962Z,89.41
2018-01-19T00:36:09.500Z,89.89
2018-01-19T00:36:50.054Z,89.79
2018-01-19T00:37:30.565Z,89.79
2018-01-19T00:38:11.069Z,89.13
2018-01-19T00:38:51.629Z,89.94
2018-01-19T00:39:32.145Z,89.75
2018-01-19T00:40:12.681Z,89.84
2018-01-19T00:40:53.244Z,90.22
2018-01-19T00:41:33.807Z,90.27
2018-01-19T00:42:14.393Z,90.03
2018-01-19T00:42:54.925Z,89.84
2018-01-19T00:43:35.498Z,90.08
2018-01-19T00:44:16.007Z,89.79
2018-01-19T00:44:56.568Z,90.22
2018-01-19T00:45:37.113Z,89.94
2018-01-19T00:46:17.663Z,89.89
2018-01-19T00:46:58.164Z,89.98
2018-01-19T00:47:38.683Z,90.17
2018-01-19T00:48:19.170Z,89.89
2018-01-19T00:48:59.694Z,89.84
2018-01-19T00:49:40.227Z,89.51
2018-01-19T00:50:20.758Z,89.41
2018-01-19T00:51:01.331Z,89.79
2018-01-19T00:51:41.853Z,90.17
2018-01-19T00:52:22.394Z,90.17
2018-01-19T00:53:03.006Z,90.79
2018-01-19T00:53:43.529Z,90.94
2018-01-19T00:54:24.114Z,90.79
2018-01-19T00:55:04.610Z,90.41
2018-01-19T00:55:45.182Z,91.65
2018-01-19T00:56:25.655Z,91.55
2018-01-19T00:57:06.238Z,90.6
2018-01-19T00:57:46.767Z,90.79
2018-01-19T00:58:27.278Z,90.6
2018-01-19T00:59:07.858Z,90.41
2018-01-19T00:59:48.338Z,90.41
2018-01-19T01:00:28.879Z,90.12
2018-01-19T01:01:09.429Z,90.12
2018-01-19T01:01:49.922Z,90.6
2018-01-19T01:02:30.470Z,90.5
2018-01-19T01:03:10.941Z,90.79
2018-01-19T01:03:51.469Z,90.5
2018-01-19T01:04:31.992Z,91.03
2018-01-19T01:05:12.580Z,91.6
2018-01-19T01:05:53.092Z,91.7
2018-01-19T01:06:33.603Z,91.41
2018-01-19T01:07:14.169Z,91.79
2018-01-19T01:07:54.757Z,91.89
2018-01-19T01:08:35.310Z,91.51
2018-01-19T01:09:15.995Z,91.22
2018-01-19T01:09:56.436Z,91.41
2018-01-19T01:10:36.966Z,92.08
2018-01-19T01:11:17.532Z,91.51
2018-01-19T01:11:58.001Z,91.6
2018-01-19T01:12:38.536Z,91.13
2018-01-19T01:13:19.112Z,91.6
2018-01-19T01:13:59.668Z,91.79
2018-01-19T01:14:40.204Z,91.6
2018-01-19T01:15:20.686Z,91.89
2018-01-19T01:16:01.235Z,91.99
2018-01-19T01:16:41.802Z,91.99
2018-01-19T01:17:22.329Z,91.51
2018-01-19T01:18:02.846Z,91.41
2018-01-19T01:20:01.320Z,91.6
2018-01-19T01:20:41.766Z,91.79
2018-01-19T01:21:22.274Z,91.89
2018-01-19T01:22:02.880Z,91.51
2018-01-19T01:22:43.349Z,91.89
2018-01-19T01:23:23.898Z,92.08
2018-01-19T01:24:04.416Z,92.46
2018-01-19T01:24:44.948Z,91.99
2018-01-19T01:25:25.444Z,91.99
2018-01-19T01:26:05.978Z,92.08
2018-01-19T01:26:46.505Z,91.7
2018-01-19T16:42:16.770Z,95.94
2018-01-19T16:42:57.201Z,95.55
2018-01-19T16:43:37.764Z,95.84
2018-01-19T16:44:18.383Z,95.36
2018-01-19T16:44:58.896Z,95.17
2018-01-19T16:45:39.476Z,95.75
2018-01-19T16:46:20.011Z,95.65
2018-01-19T16:47:00.585Z,95.75
2018-01-19T16:47:41.149Z,96.22
2018-01-19T16:48:21.756Z,96.31
2018-01-19T16:49:07.218Z,95.94
2018-01-19T16:49:42.860Z,95.51
2018-01-19T16:50:23.450Z,95.22
2018-01-19T16:51:03.985Z,94.74
2018-01-19T16:51:44.487Z,95.17
2018-01-19T16:52:25.060Z,95.7
2018-01-19T16:54:40.237Z,96.26
2018-01-19T16:55:20.801Z,96.17
2018-01-19T16:56:01.377Z,95.7
2018-01-19T16:56:41.951Z,95.7
2018-01-19T16:57:22.441Z,94.93
2018-01-19T16:58:03.005Z,94.84
2018-01-19T16:58:43.567Z,94.18
2018-01-19T16:59:24.335Z,94.37
2018-01-19T17:00:04.892Z,94.46
2018-01-19T17:00:45.442Z,94.18
2018-01-19T17:01:25.997Z,93.84
2018-01-19T17:02:06.572Z,94.93
2018-01-19T17:02:47.108Z,93.94
2018-01-19T17:03:27.654Z,94.18
2018-01-19T17:04:08.222Z,94.84
2018-01-19T17:04:48.797Z,95.32
2018-01-19T17:05:29.297Z,93.99
2018-01-19T17:06:09.820Z,94.18
2018-01-19T17:06:50.400Z,94.84
2018-01-19T17:07:30.943Z,94.37
2018-01-19T17:08:11.497Z,94.37
2018-01-19T17:08:52.057Z,93.32
2018-01-19T17:09:32.583Z,93.32
2018-01-19T17:10:13.137Z,93.41
2018-01-19T17:10:53.710Z,93.04
2018-01-19T17:11:34.256Z,92.75
2018-01-19T17:12:14.783Z,93.32
2018-01-19T17:12:55.338Z,93.7
2018-01-19T17:13:35.900Z,93.51
2018-01-19T17:14:16.459Z,93.79
2018-01-19T17:14:57.060Z,94.37
2018-01-19T17:15:38.520Z,94.65
2018-01-19T17:16:19.034Z,93.7
2018-01-19T17:16:59.534Z,94.08
2018-01-19T17:17:40.221Z,93.99
2018-01-19T17:18:20.760Z,94.46
2018-01-19T17:19:01.343Z,93.51
2018-01-19T17:19:41.904Z,92.75
2018-01-19T17:20:22.556Z,92.56
2018-01-19T17:21:03.256Z,92.46
2018-01-19T17:21:43.788Z,92.85
2018-01-19T17:22:24.336Z,92.7
2018-01-19T17:23:04.911Z,92.61
2018-01-19T17:23:45.514Z,92.7
2018-01-19T17:24:26.074Z,92.32
2018-01-19T17:25:06.537Z,92.51
2018-01-19T17:25:47.074Z,92.8
2018-01-19T17:26:27.597Z,92.99
2018-01-19T17:27:08.181Z,93.08
2018-01-19T17:27:48.716Z,93.18
2018-01-19T17:28:29.268Z,92.99
2018-01-19T17:29:09.870Z,92.61
2018-01-19T17:29:50.439Z,92.51
2018-01-19T17:30:31.130Z,92.8
2018-01-19T17:31:11.565Z,92.7
2018-01-19T17:31:52.180Z,92.66
2018-01-19T17:32:32.834Z,92.56
2018-01-19T17:33:13.340Z,92.46
2018-01-19T17:33:53.901Z,93.13
2018-01-19T17:34:34.442Z,93.32
2018-01-19T17:35:14.997Z,93.51
2018-01-19T17:35:55.569Z,93.79
2018-01-19T17:36:36.081Z,93.6
2018-01-19T17:37:16.579Z,93.89
2018-01-19T17:37:57.131Z,94.18
2018-01-19T17:38:37.812Z,93.32
2018-01-19T17:39:18.828Z,93.41
2018-01-19T17:39:58.976Z,93.79
2018-01-19T17:40:39.454Z,93.41
2018-01-19T17:41:20.001Z,94.08
2018-01-19T17:42:00.540Z,94.08
2018-01-19T17:42:41.093Z,93.89
2018-01-19T17:43:21.662Z,93.79
2018-01-19T17:44:02.127Z,93.89
2018-01-19T17:44:42.735Z,93.79
2018-01-19T17:45:23.239Z,94.56
2018-01-19T17:46:03.799Z,94.27
2018-01-19T17:46:44.388Z,94.27
2018-01-19T17:47:24.920Z,94.37
2018-01-19T17:48:05.497Z,94.56
2018-01-19T17:48:45.966Z,94.46
2018-01-19T17:49:26.643Z,95.12
2018-01-19T17:50:07.187Z,94.56
2018-01-19T17:50:47.736Z,95.08
2018-01-19T17:51:28.292Z,95.08
2018-01-19T17:52:08.838Z,95.75
2018-01-19T17:52:49.419Z,95.6
2018-01-19T17:53:29.875Z,95.7
2018-01-19T17:54:10.448Z,95.55
2018-01-19T17:54:51.067Z,94.98
2018-01-19T17:55:31.646Z,95.75
2018-01-19T17:56:12.251Z,95.55
2018-01-19T17:56:52.728Z,95.75
2018-01-19T17:57:33.292Z,95.55
2018-01-19T17:58:13.827Z,96.22
2018-01-19T17:58:54.380Z,96.36
2018-01-19T17:59:34.970Z,95.7
2018-01-19T18:00:15.551Z,95.17
2018-01-19T18:00:56.092Z,94.98
2018-01-19T18:01:36.691Z,94.6
2018-01-19T18:02:17.158Z,94.89
2018-01-19T18:02:57.655Z,95.03
2018-01-19T18:03:38.205Z,94.84
2018-01-19T18:04:18.708Z,94.89
2018-01-19T18:04:59.250Z,94.89
2018-01-19T18:05:39.797Z,94.89
2018-01-19T18:06:20.332Z,94.6
2018-01-19T18:07:00.890Z,94.98
2018-01-19T18:07:41.487Z,94.03
2018-01-19T18:08:21.962Z,94.79
2018-01-19T18:09:02.592Z,94.46
2018-01-19T18:09:43.125Z,94.37
2018-01-19T18:10:23.869Z,94.08
2018-01-19T18:11:04.382Z,94.23
2018-01-19T18:11:44.962Z,94.03
2018-01-19T18:12:25.431Z,94.98
2018-01-19T18:13:06.032Z,94.65
2018-01-19T18:13:46.620Z,94.84
2018-01-19T18:14:27.142Z,94.27
2018-01-19T18:15:07.798Z,93.84
2018-01-19T18:15:48.370Z,94.6
2018-01-19T18:16:29.005Z,94.6
2018-01-19T18:17:09.522Z,94.56
2018-01-19T18:17:50.194Z,95.08
2018-01-19T18:18:30.700Z,95.32
2018-01-19T18:19:11.329Z,94.6
2018-01-19T18:19:51.865Z,94.46
2018-01-19T18:20:32.412Z,94.37
2018-01-19T18:21:13.130Z,94.46
2018-01-19T18:21:53.948Z,95.03
2018-01-19T18:22:34.754Z,94.84
2018-01-19T18:23:15.257Z,95.41
2018-01-19T18:23:55.847Z,94.08
2018-01-19T18:24:36.405Z,93.7
2018-01-19T18:25:17.062Z,93.51
2018-01-19T18:25:57.662Z,93.32
2018-01-19T18:26:38.198Z,93.79
2018-01-19T18:27:18.770Z,94.46
2018-01-19T18:27:59.408Z,94.27
2018-01-19T18:28:39.787Z,94.46
2018-01-19T18:29:20.468Z,94.27
2018-01-19T18:30:01.164Z,94.84
2018-01-19T18:30:41.706Z,94.37
2018-01-19T18:31:22.313Z,93.6
2018-01-19T18:32:02.836Z,93.51
2018-01-19T18:32:43.396Z,93.6
2018-01-19T18:33:24.095Z,94.46
2018-01-19T18:34:04.685Z,94.18
2018-01-19T18:34:45.346Z,94.56
2018-01-19T18:35:25.751Z,95.12
2018-01-19T18:36:06.222Z,93.7
2018-01-19T18:36:46.866Z,93.75
2018-01-19T18:37:27.409Z,94.13
2018-01-19T18:38:08.046Z,94.51
2018-01-19T18:38:48.542Z,94.89
2018-01-19T18:39:29.025Z,94.65
2018-01-19T18:40:09.704Z,95.12
2018-01-19T18:40:50.171Z,94.46
2018-01-19T18:41:30.890Z,94.84
2018-01-19T18:42:11.557Z,94.46
2018-01-19T18:42:51.958Z,94.46
2018-01-19T18:43:32.447Z,95.03
2018-01-19T18:44:13.096Z,94.84
2018-01-19T18:44:53.585Z,95.12
2018-01-19T18:45:34.197Z,94.37
2018-01-19T18:46:14.779Z,94.27
2018-01-19T18:46:55.397Z,95.12
2018-01-19T18:47:35.890Z,95.12
2018-01-19T18:48:16.471Z,94.23
2018-01-19T18:48:57.031Z,94.93
2018-01-19T18:49:37.569Z,94.65
2018-01-19T18:50:18.204Z,95.12
2018-01-19T18:50:58.693Z,94.74
2018-01-19T18:51:39.293Z,94.56
2018-01-19T18:52:19.853Z,94.74
2018-01-19T18:53:00.345Z,94.27
2018-01-19T18:53:40.883Z,95.03
2018-01-19T18:54:21.463Z,95.12
2018-01-19T18:55:01.990Z,94.74
2018-01-19T18:55:42.573Z,94.46
2018-01-19T18:56:23.056Z,95.32
2018-01-19T18:57:03.701Z,94.27
2018-01-19T18:57:44.213Z,93.51
2018-01-19T18:58:24.783Z,93.51
2018-01-19T18:59:05.319Z,92.85
2018-01-19T18:59:46.007Z,93.04
2018-01-19T19:00:26.578Z,92.85
2018-01-19T19:01:07.214Z,93.79
2018-01-19T19:01:47.694Z,93.51
2018-01-19T19:02:28.348Z,93.51
2018-01-19T19:03:08.877Z,94.08
2018-01-19T19:03:49.377Z,93.79
2018-01-19T19:04:30.081Z,93.7
2018-01-19T19:05:10.623Z,93.32
2018-01-19T19:05:51.881Z,93.79
2018-01-19T19:06:31.821Z,93.7
2018-01-19T19:07:12.225Z,93.6
2018-01-19T19:07:52.852Z,93.51
2018-01-19T19:08:34.042Z,93.79
2018-01-19T19:09:14.801Z,93.89
2018-01-19T19:09:55.477Z,93.79
2018-01-19T19:10:36.047Z,94.27
2018-01-19T19:11:18.282Z,93.89
2018-01-19T19:11:58.862Z,93.7
2018-01-19T19:12:39.478Z,94.84
2018-01-19T19:13:19.971Z,95.03
2018-01-19T19:14:00.545Z,94.46
2018-01-19T19:14:41.125Z,94.56
2018-01-19T19:15:21.669Z,95.03
2018-01-19T19:16:02.320Z,95.03
2018-01-19T19:16:42.832Z,95.22
2018-01-19T19:17:23.382Z,94.65
2018-01-19T19:18:04.028Z,94.84
2018-01-19T19:18:44.602Z,94.84
2018-01-19T19:19:26.226Z,94.84
2018-01-19T19:20:06.765Z,93.89
2018-01-19T19:20:47.327Z,93.51
2018-01-19T19:21:27.866Z,93.7
2018-01-19T19:22:08.486Z,93.51
2018-01-19T19:22:49.040Z,93.79
2018-01-19T19:23:29.532Z,93.89
2018-01-19T19:24:10.110Z,93.89
2018-01-19T19:24:50.594Z,94.37
2018-01-19T19:25:31.777Z,94.56
2018-01-19T19:26:12.291Z,94.27
2018-01-19T19:30:10.956Z,93.41
2018-01-19T19:30:51.263Z,93.6
2018-01-19T19:31:32.636Z,92.75
2018-01-19T19:32:14.131Z,93.79
2018-01-19T19:33:05.447Z,93.51
2018-01-19T19:33:48.752Z,92.94
2018-01-19T19:34:30.403Z,92.75
2018-01-19T19:35:12.018Z,93.32
2018-01-19T19:35:52.416Z,92.75
2018-01-19T19:36:34.572Z,93.6
2018-01-19T19:37:16.633Z,93.6
2018-01-19T19:37:57.794Z,93.89
2018-01-19T19:38:46.279Z,94.27
2018-01-19T19:40:37.128Z,93.7
2018-01-19T19:41:17.731Z,94.56
2018-01-19T19:41:58.273Z,94.65
2018-01-19T19:42:38.937Z,95.08
2018-01-19T19:43:22.401Z,95.12
2018-01-19T19:44:02.994Z,95.22
2018-01-19T19:44:43.539Z,95.22
2018-01-19T19:45:25.871Z,94.93
2018-01-19T19:46:06.994Z,94.84
2018-01-19T19:46:47.511Z,94.65
2018-01-19T19:47:28.068Z,94.27
2018-01-19T19:48:08.749Z,93.99
2018-01-19T19:48:51.624Z,95.03
2018-01-19T19:49:32.187Z,94.27
2018-01-19T19:50:12.872Z,95.12
2018-01-19T19:50:53.423Z,94.37
2018-01-19T19:51:35.884Z,94.37
2018-01-19T19:52:18.350Z,93.79
2018-01-19T19:52:58.960Z,93.32
2018-01-19T19:53:41.660Z,94.08
2018-01-19T19:54:23.768Z,93.7
2018-01-19T19:55:06.309Z,93.41
2018-01-19T19:55:46.968Z,93.41
2018-01-19T19:56:27.643Z,93.51
2018-01-19T19:57:08.320Z,93.04
2018-01-19T19:57:49.054Z,93.6
2018-01-19T19:58:32.365Z,93.7
2018-01-19T19:59:12.945Z,93.51
2018-01-19T19:59:53.502Z,93.79
2018-01-19T20:00:35.137Z,93.51
2018-01-19T20:01:17.467Z,93.79
2018-01-19T20:01:58.070Z,93.99
2018-01-19T20:02:38.672Z,93.32
2018-01-19T20:04:38.277Z,94.37
2018-01-19T20:05:19.074Z,94.93
2018-01-19T20:06:01.002Z,95.03
2018-01-19T20:06:41.643Z,94.84
2018-01-19T20:07:22.203Z,95.03
2018-01-19T20:08:02.832Z,94.74
2018-01-19T20:08:43.708Z,95.12
2018-01-19T20:09:27.349Z,94.84
2018-01-19T20:10:08.481Z,95.41
2018-01-19T20:11:56.118Z,95.55
2018-01-19T20:12:36.790Z,95.55
2018-01-19T20:13:17.689Z,96.22
2018-01-19T20:13:58.243Z,96.65
2018-01-19T20:14:38.922Z,95.75
2018-01-19T20:15:19.422Z,96.17
2018-01-19T20:16:01.720Z,96.26
2018-01-19T20:16:42.783Z,95.98
2018-01-19T20:17:23.451Z,95.79
2018-01-19T20:18:03.923Z,95.7
2018-01-19T20:18:46.607Z,95.79
2018-01-19T20:19:27.221Z,95.89
2018-01-19T20:20:07.822Z,95.89
2018-01-19T20:20:48.437Z,95.89
2018-01-19T20:21:28.960Z,95.03
2018-01-19T20:22:12.221Z,95.03
2018-01-19T20:22:52.738Z,95.03
2018-01-19T20:23:33.332Z,93.99
2018-01-19T20:24:18.138Z,93.6
2018-01-19T20:24:58.730Z,93.79
2018-01-19T20:25:42.202Z,93.79
2018-01-19T20:26:22.750Z,93.6
2018-01-19T20:27:03.343Z,93.6
2018-01-19T20:27:43.866Z,93.51
2018-01-19T20:28:25.956Z,93.89
2018-01-19T20:29:06.825Z,94.08
2018-01-19T20:29:47.438Z,93.79
2018-01-19T20:30:27.953Z,93.55
2018-01-19T20:31:08.495Z,92.94
2018-01-19T20:31:49.124Z,93.23
2018-01-19T20:32:32.372Z,93.13
2018-01-19T20:33:13.014Z,93.6
2018-01-19T20:33:53.561Z,92.94
2018-01-19T20:34:34.097Z,93.04
2018-01-19T20:35:17.074Z,93.79
2018-01-19T20:35:57.610Z,93.7
2018-01-19T20:36:38.241Z,93.7
2018-01-19T20:37:18.769Z,93.23
2018-01-19T20:39:39.292Z,94.37
2018-01-19T20:40:20.059Z,94.46
2018-01-19T20:41:01.505Z,94.46
2018-01-19T20:41:42.253Z,94.65
2018-01-19T20:42:22.825Z,94.56
2018-01-19T20:43:03.467Z,93.89
2018-01-19T20:43:44.077Z,93.7
2018-01-19T20:44:26.652Z,93.51
2018-01-19T20:45:07.306Z,93.7
2018-01-19T20:45:47.762Z,93.89
2018-01-19T20:46:28.342Z,93.79
2018-01-19T20:47:08.877Z,94.18
2018-01-19T20:47:50.233Z,93.51
2018-01-19T20:48:33.276Z,93.89
2018-01-19T20:49:13.918Z,93.6
2018-01-19T20:49:54.367Z,94.08
2018-01-19T20:50:34.988Z,94.13
2018-01-19T20:51:15.855Z,94.18
2018-01-19T20:51:57.497Z,94.93
2018-01-19T20:52:39.848Z,94.56
2018-01-19T20:53:22.799Z,94.18
2018-01-19T20:54:06.168Z,94.46
2018-01-19T20:54:46.848Z,94.32
2018-01-19T20:55:27.483Z,93.89
2018-01-19T20:56:08.453Z,94.27
2018-01-19T20:56:49.380Z,94.18
2018-01-19T20:57:30.344Z,94.46
2018-01-19T20:58:11.309Z,93.99
2018-01-19T20:58:51.888Z,94.65
2018-01-19T20:59:32.904Z,94.13
2018-01-19T21:00:13.802Z,94.13
2018-01-19T21:00:54.694Z,94.79
2018-01-19T21:01:35.304Z,94.27
2018-01-19T21:02:15.923Z,94.13
2018-01-19T21:02:56.638Z,94.13
2018-01-19T21:03:37.355Z,94.27
2018-01-19T21:04:17.949Z,94.42
2018-01-19T21:04:58.657Z,94.23
2018-01-19T21:05:39.089Z,94.7
2018-01-19T21:06:19.651Z,94.23
2018-01-19T21:07:00.217Z,94.32
2018-01-19T21:07:41.270Z,94.6
2018-01-19T21:08:24.934Z,94.32
2018-01-19T21:09:05.536Z,94.23
2018-01-19T21:09:46.154Z,94.18
2018-01-19T21:10:27.682Z,94.27
2018-01-19T21:11:08.245Z,93.84
2018-01-19T21:11:48.930Z,94.32
2018-01-19T21:12:29.499Z,94.89
2018-01-19T21:13:10.079Z,94.13
2018-01-19T21:13:50.566Z,94.89
2018-01-19T21:14:31.200Z,94.03
2018-01-19T21:15:13.393Z,94.51
2018-01-19T21:15:53.930Z,94.23
2018-01-19T21:16:34.786Z,94.13
2018-01-19T21:17:15.677Z,93.65
2018-01-19T21:17:56.328Z,94.23
2018-01-19T21:18:36.997Z,94.51
2018-01-19T21:19:19.135Z,94.23
2018-01-19T21:20:00.157Z,94.7
2018-01-19T21:20:41.174Z,94.42
2018-01-19T21:21:22.679Z,94.6
2018-01-19T21:22:04.448Z,94.51
2018-01-19T21:22:45.044Z,95.17
2018-01-19T21:23:25.641Z,94.13
2018-01-19T21:24:06.811Z,94.89
2018-01-19T21:24:47.363Z,94.42
2018-01-19T21:25:28.074Z,94.23
2018-01-19T21:26:08.645Z,94.13
2018-01-19T21:26:49.175Z,94.03
2018-01-19T21:27:29.792Z,94.13
2018-01-19T21:28:10.410Z,94.93
2018-01-19T21:28:51.032Z,94.56
2018-01-19T21:29:31.568Z,93.7
2018-01-19T21:30:13.726Z,93.6
2018-01-19T21:30:54.309Z,93.23
2018-01-19T21:31:34.950Z,93.79
2018-01-19T21:32:15.386Z,93.23
2018-01-19T21:32:55.995Z,93.51
2018-01-19T21:33:36.539Z,93.6
2018-01-19T21:34:17.076Z,93.6
2018-01-19T21:36:40.248Z,93.89
2018-01-19T21:37:20.840Z,93.7
2018-01-19T21:38:01.394Z,93.7
2018-01-19T21:38:42.105Z,93.7
2018-01-19T21:39:24.822Z,93.32
2018-01-19T21:40:06.062Z,94.27
2018-01-19T21:40:46.584Z,93.79
2018-01-19T21:41:27.115Z,93.6
2018-01-19T21:42:10.740Z,93.32
2018-01-19T21:42:51.286Z,93.41
2018-01-19T21:43:31.881Z,93.7
2018-01-19T21:44:13.811Z,94.13
2018-01-19T21:44:55.063Z,93.84
2018-01-19T21:45:35.688Z,93.75
2018-01-19T21:46:16.197Z,94.42
2018-01-19T21:46:56.711Z,94.42
2018-01-19T21:47:37.360Z,94.51
2018-01-19T21:48:20.711Z,94.79
2018-01-19T21:49:01.412Z,95.08
2018-01-19T21:49:41.898Z,94.51
2018-01-19T21:50:22.516Z,94.13
2018-01-19T21:51:05.017Z,94.03
2018-01-19T21:51:46.429Z,94.23
2018-01-19T21:52:27.078Z,94.89
2018-01-19T21:53:08.083Z,94.51
2018-01-19T21:53:51.233Z,95.17
2018-01-19T21:54:31.854Z,94.89
2018-01-19T21:55:15.204Z,95.08
2018-01-19T21:55:55.954Z,95.08
2018-01-19T21:56:37.430Z,94.89
2018-01-19T21:57:20.203Z,94.98
2018-01-19T21:58:00.781Z,95.36
2018-01-19T21:58:41.676Z,94.79
2018-01-19T21:59:22.220Z,95.17
2018-01-19T22:00:02.803Z,94.98
2018-01-19T22:00:46.140Z,94.79
2018-01-19T22:01:26.579Z,94.79
2018-01-19T22:02:07.559Z,94.89
2018-01-19T22:02:49.930Z,95.27
2018-01-19T22:03:30.503Z,94.7
2018-01-19T22:04:10.967Z,95.08
2018-01-19T22:04:51.552Z,94.13
2018-01-19T22:05:32.048Z,94.98
2018-01-19T22:06:12.762Z,94.89
2018-01-19T22:06:53.254Z,94.6
2018-01-19T22:07:34.507Z,94.79
2018-01-19T22:08:15.100Z,94.42
2018-01-19T22:08:55.746Z,95.36
2018-01-19T22:09:36.300Z,95.08
2018-01-19T22:10:16.796Z,94.6
2018-01-19T22:10:57.327Z,94.6
2018-01-19T22:11:37.843Z,94.6
2018-01-19T22:12:18.425Z,94.98
2018-01-19T22:13:00.614Z,95.75
2018-01-19T22:13:41.183Z,95.36
2018-01-19T22:14:23.198Z,95.46
2018-01-19T22:15:04.900Z,95.84
2018-01-19T22:15:45.983Z,94.98
2018-01-19T22:16:26.758Z,95.36
2018-01-19T22:17:07.290Z,94.79
2018-01-19T22:17:47.851Z,94.98
2018-01-19T22:18:28.411Z,94.79
2018-01-19T22:19:09.144Z,94.6
2018-01-19T22:19:51.501Z,95.08
2018-01-19T22:20:32.107Z,95.08
2018-01-19T22:21:12.620Z,94.32
2018-01-19T22:21:53.192Z,94.03
2018-01-19T22:22:33.785Z,93.46
2018-01-19T22:23:14.317Z,92.9
2018-01-19T22:23:55.331Z,92.8
2018-01-19T22:24:36.624Z,92.8
2018-01-19T22:25:17.175Z,92.94
2018-01-19T22:25:57.768Z,93.13
2018-01-19T22:26:38.449Z,93.27
2018-01-19T22:27:19.124Z,92.99
2018-01-19T22:27:59.594Z,93.18
2018-01-19T22:28:40.511Z,93.37
2018-01-19T22:29:21.789Z,94.23
2018-01-19T22:30:02.313Z,93.46
2018-01-19T22:30:42.872Z,93.37
2018-01-19T22:31:23.535Z,93.65
2018-01-19T22:32:04.208Z,93.75
2018-01-19T22:32:45.322Z,93.46
2018-01-19T22:33:25.792Z,93.56
2018-01-19T22:34:06.372Z,93.46
2018-01-19T22:34:46.844Z,93.18
2018-01-19T22:35:27.389Z,93.37
2018-01-19T22:36:07.968Z,93.27
2018-01-19T22:36:48.576Z,93.65
2018-01-19T22:37:29.084Z,92.51
2018-01-19T22:38:09.662Z,92.32
2018-01-19T22:38:50.226Z,92.71
2018-01-19T22:39:30.834Z,92.71
2018-01-19T22:40:11.348Z,92.99
2018-01-19T22:40:51.899Z,92.9
2018-01-19T22:41:32.386Z,92.9
2018-01-19T22:42:12.976Z,92.71
2018-01-19T22:42:53.530Z,92.71
2018-01-19T22:43:34.149Z,92.9
2018-01-19T22:44:14.697Z,92.8
2018-01-19T22:44:55.264Z,92.9
2018-01-19T22:45:35.950Z,93.65
2018-01-19T22:46:16.712Z,94.23
2018-01-19T22:46:57.305Z,93.75
2018-01-19T22:47:38.592Z,93.46
2018-01-19T22:48:22.280Z,93.56
2018-01-19T22:49:02.836Z,93.27
2018-01-19T22:49:43.350Z,93.46
2018-01-19T22:50:23.862Z,93.65
2018-01-19T22:51:04.391Z,92.99
2018-01-19T22:51:44.984Z,93.08
2018-01-19T22:52:25.461Z,92.9
2018-01-19T22:53:06.003Z,93.18
2018-01-19T22:53:46.526Z,93.65
2018-01-19T22:54:27.067Z,93.75
2018-01-19T22:55:07.617Z,93.27
2018-01-19T22:55:48.152Z,93.65
2018-01-19T22:56:28.743Z,94.03
2018-01-19T22:57:09.322Z,94.37
2018-01-19T22:57:49.860Z,94.27
2018-01-19T22:58:30.388Z,94.37
2018-01-19T22:59:10.884Z,94.65
2018-01-19T22:59:51.423Z,94.18
2018-01-19T23:00:32.011Z,94.56
2018-01-19T23:01:12.616Z,94.18
2018-01-19T23:01:53.114Z,94.08
2018-01-19T23:02:33.649Z,94.18
2018-01-19T23:03:14.201Z,95.03
2018-01-19T23:03:54.831Z,94.56
2018-01-19T23:04:35.362Z,94.56
2018-01-19T23:05:15.874Z,94.27
2018-01-19T23:05:56.458Z,93.8
2018-01-19T23:06:37.078Z,94.46
2018-01-19T23:07:17.608Z,94.84
2018-01-19T23:07:58.125Z,94.56
2018-01-19T23:08:38.745Z,95.03
2018-01-19T23:09:19.316Z,94.74
2018-01-19T23:10:01.202Z,94.93
2018-01-19T23:10:41.946Z,94.93
2018-01-19T23:11:22.378Z,95.22
2018-01-19T23:12:02.704Z,94.93
2018-01-19T23:12:43.276Z,95.7
2018-01-19T23:13:23.837Z,95.41
2018-01-19T23:14:04.359Z,95.41
2018-01-19T23:14:44.975Z,95.6
2018-01-19T23:15:26.006Z,95.6
2018-01-19T23:16:07.326Z,95.89
2018-01-19T23:16:47.946Z,95.79
2018-01-19T23:17:28.467Z,94.74
2018-01-19T23:18:09.094Z,94.46
2018-01-19T23:18:49.639Z,94.65
2018-01-19T23:19:30.183Z,94.74
2018-01-19T23:20:13.748Z,94.08
2018-01-19T23:20:54.224Z,94.74
2018-01-19T23:21:34.825Z,94.56
2018-01-19T23:22:15.413Z,95.03
2018-01-19T23:22:57.668Z,95.6
2018-01-19T23:23:38.207Z,95.79
2018-01-19T23:24:18.838Z,96.36
2018-01-19T23:24:59.316Z,95.7
2018-01-19T23:25:39.904Z,96.08
2018-01-19T23:26:20.449Z,95.98
2018-01-19T23:27:02.496Z,96.55
2018-01-19T23:27:42.962Z,96.08
2018-01-19T23:28:23.479Z,95.51
2018-01-19T23:29:06.253Z,95.51
2018-01-19T23:29:45.776Z,95.51
2018-01-19T23:30:27.832Z,95.79
2018-01-19T23:31:09.210Z,95.51
2018-01-19T23:31:49.720Z,95.6
2018-01-19T23:32:30.282Z,95.89
2018-01-19T23:33:10.799Z,95.7
2018-01-19T23:33:53.893Z,95.03
2018-01-19T23:34:34.473Z,94.93
2018-01-19T23:35:14.998Z,94.93
2018-01-19T23:35:55.551Z,95.22
2018-01-19T23:36:36.127Z,95.31
2018-01-19T23:37:18.861Z,94.93
2018-01-19T23:37:59.406Z,95.12
2018-01-19T23:38:39.949Z,95.79
2018-01-19T23:39:20.468Z,95.51
2018-01-19T23:40:01.045Z,94.93
2018-01-19T23:40:41.735Z,94.98
2018-01-19T23:41:22.747Z,94.03
2018-01-19T23:42:03.883Z,94.65
2018-01-19T23:42:44.440Z,94.37
2018-01-19T23:43:25.026Z,95.12
2018-01-19T23:44:05.487Z,95.31
2018-01-19T23:44:46.052Z,95.12
2018-01-19T23:45:26.590Z,95.89
2018-01-19T23:46:08.777Z,96.17
2018-01-19T23:46:50.142Z,96.17
2018-01-19T23:47:31.641Z,95.7
2018-01-19T23:48:13.359Z,95.41
2018-01-19T23:48:54.860Z,95.31
2018-01-19T23:49:35.500Z,95.12
2018-01-19T23:50:16.053Z,94.93
2018-01-19T23:50:56.585Z,94.74
2018-01-19T23:51:37.520Z,93.99
2018-01-19T23:52:18.334Z,95.03
2018-01-19T23:52:58.853Z,94.74
2018-01-19T23:53:39.359Z,95.12
2018-01-19T23:54:19.895Z,95.12
2018-01-19T23:55:00.434Z,95.12
2018-01-19T23:55:40.949Z,95.12
2018-01-19T23:56:22.661Z,95.03
2018-01-19T23:57:03.750Z,95.03
2018-01-19T23:57:44.268Z,94.93
2018-01-19T23:58:25.208Z,95.03
2018-01-19T23:59:05.693Z,95.12
2018-01-19T23:59:47.407Z,94.84
